• Join FlightAware (Why Join?)
  • Login
  • US Flag 
10:44AM EDT


 

Airport Tracker/Info


-or-


 

Live Flight TrackerFlight Track Log ✈ N893SR ✈ 07-Aug-2011 ✈ KGRR - KOWD

Flight Track Log - Related Links

Times and Time Zones

All times are in EDT time to prevent confusion due to time zone crossing. See the N893SR flight status page for this flight to view local times or setup timezone preferences in your user account.

Time Position Orientation Groundspeed Altitude Reporting Facility
EDT Latitude Longitude Course Direction KTS MPH feet Rate Location/Type
10:52AM 42.8842 -85.4601 88° East  Level FlightAware Approximate
11:00AM 42.9032 -84.9603 88° East  Level FlightAware Approximate
11:08AM 42.9211 -84.4576 89° East  Level FlightAware Approximate
11:16AM 42.9516 -83.9560 91° East  Level FlightAware Approximate
11:24AM 42.9603 -83.4534 92° East  Level FlightAware Approximate
11:32AM 42.9475 -82.9502 92° East  Level FlightAware Approximate
11:36AM 42.9333 -82.5167 90° East 200 230 9,000  Level Toronto Center
11:37AM 42.9333 -82.4333 90° East 200 230 8,900 -60 Descending Toronto Center
11:38AM 42.9333 -82.3667 90° East 190 219 8,900  Level Toronto Center
11:39AM 42.9333 -82.3000 90° East 200 230 8,900  Level Toronto Center
11:40AM 42.9333 -82.2333 90° East 200 230 8,900  Level Toronto Center
11:41AM 42.9333 -82.1667 90° East 200 230 8,900  Level Toronto Center
11:42AM 42.9333 -82.0667 71° East 190 219 8,900  Level Toronto Center
11:43AM 42.9500 -82.0000 90° East 200 230 8,900  Level Toronto Center
11:44AM 42.9500 -81.9333 71° East 200 230 8,900  Level Toronto Center
11:45AM 42.9667 -81.8667 75° East 200 230 9,000  Climbing Toronto Center
11:46AM 42.9833 -81.7833 90° East 200 230 9,000 -60 Level Toronto Center
11:47AM 42.9833 -81.7000 90° East 200 230 8,900 -60 Descending Toronto Center
11:48AM 42.9833 -81.6333 71° East 200 230 8,900  Level Toronto Center
11:49AM 43.0000 -81.5667 90° East 200 230 8,900  Level Toronto Center
11:50AM 43.0000 -81.4833 90° East 200 230 9,000  Climbing Toronto Center
11:51AM 43.0000 -81.4167 90° East 200 230 8,900 -60 Descending Toronto Center
11:52AM 43.0000 -81.3500 77° East 200 230 8,900  Level Toronto Center
11:53AM 43.0167 -81.2500 90° East 200 230 8,900  Level Toronto Center
11:54AM 43.0167 -81.1833 90° East 200 230 8,900  Level Toronto Center
11:55AM 43.0167 -81.1167 90° East 200 230 9,000  Climbing Toronto Center
11:56AM 43.0167 -81.0500 90° East 200 230 8,900  Descending Toronto Center
11:57AM 43.0167 -80.9500 90° East 200 230 9,000  Climbing Toronto Center
11:58AM 43.0167 -80.8833 109° East 200 230 9,000  Level Toronto Center
11:59AM 43.0000 -80.8167 75° East 200 230 9,000  Level Toronto Center
12:00PM 43.0167 -80.7333 90° East 200 230 9,000  Level Toronto Center
12:01PM 43.0167 -80.6667 90° East 200 230 9,000  Level Toronto Center
12:02PM 43.0167 -80.5833 90° East 200 230 9,000  Level Toronto Center
12:03PM 43.0167 -80.5000 90° East 200 230 9,000  Level Toronto Center
12:04PM 43.0167 -80.4333 109° East 200 230 9,000  Level Toronto Center
12:05PM 43.0000 -80.3667 90° East 190 219 9,000  Level Toronto Center
12:06PM 43.0000 -80.3000 90° East 200 230 9,000 180 Level Toronto Center
12:07PM 43.0000 -80.2333 90° East 190 219 9,400 420 Climbing Toronto Center
12:08PM 43.0000 -80.1333 90° East 180 207 9,900 420 Climbing Toronto Center
12:09PM 43.0000 -80.0833 90° East 180 207 10,300 420 Climbing Toronto Center
12:10PM 43.0000 -80.0000 90° East 180 207 10,800 300 Climbing Toronto Center
12:11PM 43.0000 -79.9333 90° East 190 219 11,000 60 Climbing Toronto Center
12:12PM 43.0000 -79.8667 90° East 200 230 11,000  Level Toronto Center
12:13PM 43.0000 -79.8000 90° East 200 230 11,000  Level Toronto Center
12:14PM 43.0000 -79.7000 90° East 200 230 11,000  Level Toronto Center
12:15PM 43.0000 -79.6333 71° East 200 230 11,000  Level Toronto Center
12:16PM 43.0167 -79.5667 90° East 200 230 11,000  Level Toronto Center
12:17PM 43.0167 -79.4667 71° East 200 230 11,000  Level Toronto Center
12:18PM 43.0333 -79.4000 90° East 200 230 11,000 180 Level Toronto Center
12:19PM 43.0333 -79.3333 90° East 200 230 11,400 420 Climbing Toronto Center
12:20PM 43.0333 -79.2667 90° East 180 207 11,900 480 Climbing Toronto Center
12:21PM 43.0333 -79.2000 109° East 180 207 12,400 540 Climbing Toronto Center
12:22PM 43.0167 -79.1333 109° East 180 207 13,000 540 Climbing Toronto Center
12:23PM 43.0000 -79.0667 109° East 180 207 13,500 480 Climbing Toronto Center
12:24PM 42.9833 -79.0000 90° East 180 207 14,000 480 Climbing Toronto Center
12:25PM 42.9833 -78.9333 90° East 180 207 14,500 480 Climbing Toronto Center
12:26PM 42.9833 -78.8667 336° Northwest 180 207 15,000 480 Climbing Toronto Center
12:26PM 42.9914 -78.8717 93° East 175 201 15,100 120 Climbing Cleveland Center
12:27PM 42.9883 -78.7981 91° East 185 213 15,200 -60 Climbing Cleveland Center
12:28PM 42.9872 -78.7214 93° East 200 230 15,000 -120 Descending Cleveland Center
12:29PM 42.9836 -78.6364 93° East 218 251 15,000  Level Cleveland Center
12:30PM 42.9800 -78.5542 91° East 218 251 15,000  Level Cleveland Center
12:31PM 42.9786 -78.4719 91° East 213 245 15,000  Level Cleveland Center
12:32PM 42.9772 -78.3897 94° East 213 245 15,000  Level Cleveland Center
12:33PM 42.9733 -78.3075 93° East 213 245 15,000  Level Cleveland Center
12:34PM 42.9694 -78.2139 92° East 218 251 15,000  Level Cleveland Center
12:35PM 42.9678 -78.1344 92° East 213 245 15,000  Level Cleveland Center
12:36PM 42.9661 -78.0525 94° East 213 245 15,000  Level Cleveland Center
12:37PM 42.9622 -77.9675 92° East 218 251 15,000  Level Cleveland Center
12:38PM 42.9603 -77.8881 94° East 213 245 15,000  Level Cleveland Center
12:39PM 42.9564 -77.8058 94° East 213 245 15,000  Level Cleveland Center
12:40PM 42.9522 -77.7267 92° East 213 245 15,000  Level Cleveland Center
12:41PM 42.9500 -77.6417 92° East 218 251 15,000  Level Cleveland Center
12:42PM 42.9481 -77.5594 94° East 218 251 15,000  Level Cleveland Center
12:43PM 42.9436 -77.4747 92° East 218 251 15,100  Climbing Cleveland Center
12:44PM 42.9414 -77.3925 92° East 218 251 15,100  Level Cleveland Center
12:45PM 42.9394 -77.3189 94° East 218 251 15,100  Level Cleveland Center
12:46PM 42.9347 -77.2339 97° East 218 251 15,200 60 Climbing Cleveland Center
12:48PM 42.9167 -77.0333 90° East 210 242 15,300 -60 Climbing Toronto Center
12:50PM 42.9167 -76.8833 90° East 230 265 15,000 -120 Descending Toronto Center
12:51PM 42.9167 -76.7833 90° East 220 253 15,000  Level Toronto Center
12:52PM 42.9167 -76.7000 124° Southeast 220 253 15,000  Level Toronto Center
12:53PM 42.8833 -76.6333 90° East 220 253 15,000  Level Toronto Center
12:54PM 42.8833 -76.5333 90° East 220 253 15,000  Level Toronto Center
12:55PM 42.8833 -76.4667 75° East 220 253 15,000  Level Toronto Center
12:56PM 42.8989 -76.3886 91° East 219 252 15,000  Level Boston Center
12:57PM 42.8975 -76.3092 95° East 214 246 15,000  Level Boston Center
12:58PM 42.8919 -76.2239 93° East 221 254 15,000  Level Boston Center
12:59PM 42.8883 -76.1414 95° East 221 254 15,000  Level Boston Center
01:00PM 42.8828 -76.0589 92° East 211 243 15,000  Level Boston Center
01:01PM 42.8811 -75.9794 95° East 219 252 15,000  Level Boston Center
01:02PM 42.8753 -75.8969 94° East 212 244 15,000  Level Boston Center
01:03PM 42.8714 -75.8144 95° East 217 250 15,000  Level Boston Center
01:04PM 42.8656 -75.7319 92° East 217 250 15,000  Level Boston Center
01:05PM 42.8636 -75.6497 96° East 217 250 15,000  Level Boston Center
01:06PM 42.8575 -75.5700 94° East 217 250 15,000  Level Boston Center
01:07PM 42.8536 -75.4850 92° East 217 250 15,000  Level Boston Center
01:08PM 42.8517 -75.4056 98° East 217 250 15,000  Level Boston Center
01:09PM 42.8433 -75.3231 92° East 217 250 15,000  Level Boston Center
01:10PM 42.8411 -75.2408 97° East 217 250 15,000  Level Boston Center
01:11PM 42.8347 -75.1667 94° East 217 250 15,000  Level Boston Center
01:12PM 42.8303 -75.0872 94° East 217 250 15,000  Level Boston Center
01:13PM 42.8258 -75.0050 94° East 217 250 15,000  Level Boston Center
01:14PM 42.8214 -74.9256 96° East 217 250 15,000  Level Boston Center
01:15PM 42.8147 -74.8431 95° East 217 250 15,000  Level Boston Center
01:16PM 42.8083 -74.7522 93° East 223 257 15,000  Level Boston Center
01:17PM 42.8056 -74.6758 96° East 218 251 15,000  Level Boston Center
01:18PM 42.7992 -74.5878 93° East 218 251 15,000  Level Boston Center
01:19PM 42.7961 -74.5142 96° East 218 251 15,000  Level Boston Center
01:20PM 42.7894 -74.4261 95° East 218 251 15,000  Level Boston Center
01:21PM 42.7844 -74.3497 94° East 218 251 15,000  Level Boston Center
01:22PM 42.7797 -74.2647 95° East 218 251 15,000  Level Boston Center
01:23PM 42.7747 -74.1881 97° East 218 251 15,000  Level Boston Center
01:24PM 42.7675 -74.1031 96° East 218 251 15,000  Level Boston Center
01:25PM 42.7622 -74.0294 95° East 212 244 15,000  Level Boston Center
01:26PM 42.7572 -73.9472 97° East 212 244 15,000  Level Boston Center
01:27PM 42.7500 -73.8650 91° East 217 250 15,000  Level Boston Center
01:28PM 42.7489 -73.7803 101° East 217 250 15,000  Level Boston Center
01:29PM 42.7372 -73.6953 99° East 217 250 15,000  Level Boston Center
01:30PM 42.7278 -73.6103 99° East 217 250 15,000  Level Boston Center
01:31PM 42.7183 -73.5308 97° East 222 255 15,000  Level Boston Center
01:32PM 42.7106 -73.4489 99° East 222 255 15,000  Level Boston Center
01:33PM 42.7008 -73.3667 97° East 222 255 15,000  Level Boston Center
01:34PM 42.6933 -73.2847 99° East 222 255 15,000  Level Boston Center
01:35PM 42.6833 -73.1997 99° East 222 255 15,000  Level Boston Center
01:36PM 42.6756 -73.1347 99° East 222 255 15,000  Level Boston Center
01:37PM 42.6656 -73.0444 99° East 222 255 15,000 -180 Level Boston Center
01:38PM 42.6556 -72.9594 99° East 222 255 14,700 -360 Descending Boston Center
01:39PM 42.6456 -72.8719 99° East 222 255 14,300 -540 Descending Boston Center
01:40PM 42.6353 -72.7844 99° East 227 261 13,700 -660 Descending Boston Center
01:41PM 42.6253 -72.7025 102° East 227 261 13,000 -720 Descending Boston Center
01:42PM 42.6128 -72.6206 94° East 222 255 12,300 -720 Descending Boston Center
01:43PM 42.6089 -72.5389 96° East 222 255 11,600 -780 Descending Boston Center
01:44PM 42.6025 -72.4569 100° East 217 250 10,800 -840 Descending Boston Center
01:45PM 42.5922 -72.3781 98° East 217 250 10,000 -900 Descending Boston Center
01:46PM 42.5836 -72.2964 102° East 217 250 9,000 -1,140 Descending Boston Center
01:47PM 42.5689 -72.2061 97° East 222 255 7,800 -1,020 Descending Boston Center
01:48PM 42.5625 -72.1328 95° East 211 243 7,000 -840 Descending Boston Center
01:49PM 42.5581 -72.0597 102° East 194 223 6,200 -540 Descending Boston Center
01:50PM 42.5475 -71.9947 104° East 182 209 6,000 -120 Descending Boston Center
01:51PM 42.5369 -71.9386 98° East 165 190 6,000  Level Boston Center
01:52PM 42.5303 -71.8767 96° East 160 184 6,000 -120 Level Boston Center
01:53PM 42.5258 -71.8147 98° East 160 184 5,800 -360 Descending Boston Center
01:54PM 42.5192 -71.7472 98° East 170 196 5,300 -540 Descending Boston Center
01:55PM 42.5125 -71.6825 98° East 175 201 4,800 -540 Descending Boston Center
01:56PM 42.5058 -71.6150 118° Southeast 182 209 4,300 -720 Descending Boston Center
01:56PM 42.5000 -71.6000 132° Southeast 184 212 4,000 -540 Descending Boston TRACON
01:57PM 42.4667 -71.5500 144° Southeast 168 193 3,700 -420 Descending Boston TRACON
01:58PM 42.4333 -71.5167 166° South 175 201 3,200 -420 Descending Boston TRACON
01:59PM 42.3833 -71.5000 144° Southeast 169 194 2,900 -120 Descending Boston TRACON
02:00PM 42.3589 -71.4764 154° Southeast 162 186 3,000  Climbing Boston Center
02:01PM 42.3211 -71.4517 162° South 155 178 3,000  Level Boston Center
02:02PM 42.2833 -71.4356 166° South 143 165 3,000  Level Boston Center
02:03PM 42.2519 -71.4247 160° South 137 158 3,000  Level Boston Center
02:04PM 42.2144 -71.4058 141° Southeast 127 146 3,000  Level Boston Center
02:05PM 42.1892 -71.3781 128° Southeast 127 146 3,000 -60 Level Boston Center
02:07PM 42.1333 -71.2833 114° Southeast 144 166 2,900 -60 Descending Boston TRACON
02:08PM 42.1167 -71.2333 160° South 135 155 2,900 -60 Level Boston TRACON
02:09PM 42.0833 -71.2167 160° South 125 144 2,800 -300 Descending Boston TRACON
02:10PM 42.0500 -71.2000 143° Southeast 133 153 2,300 -480 Descending Boston TRACON
02:11PM 42.0167 -71.1667 143° Southeast 124 143 1,900 -240 Descending Boston TRACON
02:12PM 42.0000 -71.1500 124° Southeast 107 123 1,900  Level Boston TRACON
02:13PM 41.9833 -71.1167 66° East 138 159 1,900  Level Boston TRACON
02:14PM 42.0000 -71.0667 360° North 155 178 1,900  Level Boston TRACON
02:15PM 42.0500 -71.0667 304° West 162 186 1,900  Level Boston TRACON
02:16PM 42.0667 -71.1000 334° Northwest 147 169 1,900 -240 Level Boston TRACON
02:17PM 42.1167 -71.1333 340° North 171 197 1,500 -600 Descending Boston TRACON
02:18PM 42.1500 -71.1500 340° North 160 184 800 -720 Descending Boston TRACON